createdAt,value
2019-06-25T00:00:56.998Z,992.93
2019-06-25T00:01:57.947Z,992.91
2019-06-25T00:02:56.293Z,992.94
2019-06-25T00:04:00.471Z,992.93
2019-06-25T00:05:02.439Z,992.94
2019-06-25T00:05:58.454Z,992.92
2019-06-25T00:06:57.056Z,992.89
2019-06-25T00:07:57.175Z,992.89
2019-06-25T00:09:00.972Z,992.87
2019-06-25T00:10:00.485Z,992.90
2019-06-25T00:10:59.492Z,992.93
2019-06-25T00:11:59.341Z,992.86
2019-06-25T00:12:59.980Z,992.86
2019-06-25T00:13:59.979Z,992.84
2019-06-25T00:14:59.957Z,992.82
2019-06-25T00:16:00.445Z,992.82
2019-06-25T00:16:58.811Z,992.83
2019-06-25T00:18:00.947Z,992.83
2019-06-25T00:19:00.967Z,992.86
2019-06-25T00:19:59.280Z,992.83
2019-06-25T00:20:59.498Z,992.89
2019-06-25T00:21:59.725Z,992.85
2019-06-25T00:23:01.445Z,992.84
2019-06-25T00:24:03.947Z,992.89
2019-06-25T00:25:01.990Z,992.90
2019-06-25T00:26:01.540Z,992.88
2019-06-25T00:27:00.756Z,992.88
2019-06-25T00:28:01.988Z,992.91
2019-06-25T00:29:01.299Z,992.86
2019-06-25T00:30:01.423Z,992.88
2019-06-25T00:31:03.453Z,992.90
2019-06-25T00:32:03.449Z,992.91
2019-06-25T00:33:01.908Z,992.89
2019-06-25T00:34:02.110Z,992.89
2019-06-25T00:35:02.371Z,992.87
2019-06-25T00:36:02.587Z,992.81
2019-06-25T00:37:05.530Z,992.83
2019-06-25T00:38:15.124Z,992.79
2019-06-25T00:39:04.958Z,992.78
2019-06-25T00:40:06.942Z,992.83
2019-06-25T00:41:03.664Z,992.87
2019-06-25T00:42:05.442Z,992.87
2019-06-25T00:43:04.067Z,992.88
2019-06-25T00:44:10.969Z,992.85
2019-06-25T00:45:05.955Z,992.86
2019-06-25T00:46:06.450Z,992.85
2019-06-25T00:47:06.455Z,992.81
2019-06-25T00:48:08.822Z,992.80
2019-06-25T00:49:08.452Z,992.84
2019-06-25T00:50:06.943Z,992.86
2019-06-25T00:51:05.174Z,992.83
2019-06-25T00:52:06.949Z,992.88
2019-06-25T00:53:05.536Z,992.87
2019-06-25T00:54:06.765Z,992.85
2019-06-25T00:55:06.964Z,992.87
2019-06-25T00:56:08.897Z,992.85
2019-06-25T00:57:07.961Z,992.86
2019-06-25T00:58:06.576Z,992.86
2019-06-25T00:59:08.450Z,992.85
2019-06-25T01:00:12.877Z,992.84
2019-06-25T01:01:08.977Z,992.79
2019-06-25T01:02:07.295Z,992.86
2019-06-25T01:03:08.504Z,992.86
2019-06-25T01:04:07.719Z,992.80
2019-06-25T01:05:09.494Z,992.77
2019-06-25T01:06:09.981Z,992.78
2019-06-25T01:07:08.334Z,992.76
2019-06-25T01:08:08.557Z,992.76
2019-06-25T01:09:08.780Z,992.75
2019-06-25T01:10:08.996Z,992.76
2019-06-25T01:11:09.231Z,992.78
2019-06-25T01:12:11.996Z,992.69
2019-06-25T01:13:09.592Z,992.67
2019-06-25T01:14:09.842Z,992.69
2019-06-25T01:15:10.006Z,992.71
2019-06-25T01:16:11.947Z,992.72
2019-06-25T01:17:11.418Z,992.70
2019-06-25T01:18:10.642Z,992.69
2019-06-25T01:19:12.455Z,992.70
2019-06-25T01:20:10.916Z,992.70
2019-06-25T01:21:12.136Z,992.67
2019-06-25T01:22:12.952Z,992.69
2019-06-25T01:23:11.547Z,992.68
2019-06-25T01:24:13.455Z,992.69
2019-06-25T01:25:13.445Z,992.67
2019-06-25T01:26:12.041Z,992.73
2019-06-25T01:27:12.266Z,992.70
2019-06-25T01:28:12.478Z,992.68
2019-06-25T01:29:12.689Z,992.72
2019-06-25T01:30:27.939Z,992.69
2019-06-25T01:31:13.117Z,992.66
2019-06-25T01:32:14.954Z,992.66
2019-06-25T01:33:13.567Z,992.67
2019-06-25T01:34:13.786Z,992.65
2019-06-25T01:35:15.975Z,992.65
2019-06-25T01:36:14.186Z,992.67
2019-06-25T01:37:14.404Z,992.71
2019-06-25T01:38:16.469Z,992.65
2019-06-25T01:39:14.777Z,992.68
2019-06-25T01:40:15.003Z,992.69
2019-06-25T01:41:17.018Z,992.70
2019-06-25T01:42:15.349Z,992.70
2019-06-25T01:43:15.569Z,992.69
2019-06-25T01:44:17.454Z,992.69
2019-06-25T01:45:17.461Z,992.67
2019-06-25T01:46:17.968Z,992.72
2019-06-25T01:47:16.159Z,992.69
2019-06-25T01:48:16.381Z,992.63
2019-06-25T01:49:16.589Z,992.66
2019-06-25T01:50:16.805Z,992.67
2019-06-25T01:51:20.004Z,992.64
2019-06-25T01:52:18.951Z,992.63
2019-06-25T01:53:17.434Z,992.63
2019-06-25T01:54:17.631Z,992.65
2019-06-25T01:55:17.847Z,992.63
2019-06-25T01:56:18.056Z,992.68
2019-06-25T01:57:18.269Z,992.67
2019-06-25T01:58:18.487Z,992.63
2019-06-25T01:59:18.704Z,992.68
2019-06-25T02:00:18.910Z,992.68
2019-06-25T02:01:19.121Z,992.64
2019-06-25T02:02:19.330Z,992.65
2019-06-25T02:03:23.504Z,992.66
2019-06-25T02:04:19.688Z,992.67
2019-06-25T02:05:19.898Z,992.61
2019-06-25T02:06:20.111Z,992.64
2019-06-25T02:07:21.969Z,992.65
2019-06-25T02:08:21.959Z,992.66
2019-06-25T02:09:22.454Z,992.59
2019-06-25T02:10:22.910Z,992.61
2019-06-25T02:11:21.028Z,992.60
2019-06-25T02:12:22.953Z,992.60
2019-06-25T02:13:21.420Z,992.63
2019-06-25T02:14:27.500Z,992.55
2019-06-25T02:15:21.824Z,992.55
2019-06-25T02:16:23.950Z,992.55
2019-06-25T02:17:23.989Z,992.54
2019-06-25T02:18:23.952Z,992.49
2019-06-25T02:19:22.426Z,992.51
2019-06-25T02:20:24.450Z,992.56
2019-06-25T02:21:26.452Z,992.53
2019-06-25T02:22:22.917Z,992.47
2019-06-25T02:23:23.125Z,992.51
2019-06-25T02:24:23.330Z,992.54
2019-06-25T02:25:25.470Z,992.50
2019-06-25T02:26:25.486Z,992.52
2019-06-25T02:27:25.453Z,992.50
2019-06-25T02:28:24.054Z,992.52
2019-06-25T02:29:26.011Z,992.50
2019-06-25T02:30:24.422Z,992.46
2019-06-25T02:31:24.647Z,992.50
2019-06-25T02:32:26.454Z,992.49
2019-06-25T02:33:24.946Z,992.49
2019-06-25T02:34:25.068Z,992.50
2019-06-25T02:35:25.254Z,992.48
2019-06-25T02:36:25.487Z,992.51
2019-06-25T02:37:25.701Z,992.49
2019-06-25T02:38:27.250Z,992.47
2019-06-25T02:39:26.110Z,992.44
2019-06-25T02:40:26.302Z,992.51
2019-06-25T02:41:26.518Z,992.53
2019-06-25T02:42:26.767Z,992.52
2019-06-25T02:43:28.956Z,992.52
2019-06-25T02:44:27.186Z,992.54
2019-06-25T02:45:28.956Z,992.53
2019-06-25T02:46:29.453Z,992.54
2019-06-25T02:47:27.664Z,992.52
2019-06-25T02:48:29.463Z,992.59
2019-06-25T02:49:28.063Z,992.52
2019-06-25T02:50:28.280Z,992.48
2019-06-25T02:51:28.497Z,992.51
2019-06-25T02:52:28.721Z,992.53
2019-06-25T02:53:30.458Z,992.50
2019-06-25T02:54:29.041Z,992.53
2019-06-25T02:55:30.984Z,992.51
2019-06-25T02:56:30.971Z,992.54
2019-06-25T02:57:29.558Z,992.52
2019-06-25T02:58:31.457Z,992.53
2019-06-25T02:59:29.919Z,992.54
2019-06-25T03:00:30.144Z,992.53
2019-06-25T03:01:30.341Z,992.55
2019-06-25T03:02:30.546Z,992.53
2019-06-25T03:03:32.454Z,992.56
2019-06-25T03:04:30.910Z,992.56
2019-06-25T03:05:31.120Z,992.58
2019-06-25T03:06:31.328Z,992.61
2019-06-25T03:07:31.544Z,992.60
2019-06-25T03:08:33.471Z,992.57
2019-06-25T03:09:33.454Z,992.59
2019-06-25T03:10:32.084Z,992.61
2019-06-25T03:11:32.197Z,992.60
2019-06-25T03:12:32.402Z,992.61
2019-06-25T03:13:36.464Z,992.59
2019-06-25T03:14:36.460Z,992.60
2019-06-25T03:15:40.972Z,992.57
2019-06-25T03:16:33.197Z,992.60
2019-06-25T03:17:36.972Z,992.58
2019-06-25T03:18:33.533Z,992.61
2019-06-25T03:19:33.755Z,992.59
2019-06-25T03:20:33.968Z,992.58
2019-06-25T03:21:36.072Z,992.59
2019-06-25T03:22:34.315Z,992.58
2019-06-25T03:23:36.463Z,992.58
2019-06-25T03:24:34.660Z,992.58
2019-06-25T03:25:34.874Z,992.61
2019-06-25T03:26:36.983Z,992.57
2019-06-25T03:27:35.287Z,992.57
2019-06-25T03:28:35.512Z,992.64
2019-06-25T03:29:37.460Z,992.65
2019-06-25T03:30:35.938Z,992.68
2019-06-25T03:32:03.377Z,992.63
2019-06-25T03:32:36.351Z,992.62
2019-06-25T03:33:36.569Z,992.59
2019-06-25T03:34:36.774Z,992.67
2019-06-25T03:35:36.983Z,992.62
2019-06-25T03:36:37.186Z,992.61
2019-06-25T03:37:38.965Z,992.62
2019-06-25T03:38:37.560Z,992.60
2019-06-25T03:39:37.774Z,992.66
2019-06-25T03:40:38.000Z,992.66
2019-06-25T03:41:38.184Z,992.67
2019-06-25T03:42:38.398Z,992.64
2019-06-25T03:43:39.605Z,992.58
2019-06-25T03:44:40.457Z,992.66
2019-06-25T03:45:39.048Z,992.59
2019-06-25T03:46:39.269Z,992.65
2019-06-25T03:47:39.561Z,992.60
2019-06-25T03:48:39.690Z,992.59
2019-06-25T03:49:40.915Z,992.65
2019-06-25T03:50:40.120Z,992.60
2019-06-25T03:51:40.338Z,992.58
2019-06-25T03:52:42.464Z,992.57
2019-06-25T03:53:42.462Z,992.58
2019-06-25T03:54:42.479Z,992.64
2019-06-25T03:55:41.626Z,992.62
2019-06-25T03:56:42.970Z,992.60
2019-06-25T03:57:42.964Z,992.63
2019-06-25T03:58:41.413Z,992.62
2019-06-25T03:59:41.678Z,992.62
2019-06-25T04:00:43.466Z,992.61
2019-06-25T04:01:41.948Z,992.69
2019-06-25T04:02:42.154Z,992.67
2019-06-25T04:03:42.368Z,992.65
2019-06-25T04:04:44.551Z,992.62
2019-06-25T04:05:49.494Z,992.62
2019-06-25T04:06:44.459Z,992.64
2019-06-25T04:07:44.963Z,992.65
2019-06-25T04:08:44.981Z,992.62
2019-06-25T04:09:43.451Z,992.62
2019-06-25T04:10:43.664Z,992.59
2019-06-25T04:11:43.874Z,992.58
2019-06-25T04:12:44.112Z,992.58
2019-06-25T04:13:45.225Z,992.58
2019-06-25T04:14:47.960Z,992.56
2019-06-25T04:15:44.664Z,992.57
2019-06-25T04:16:46.462Z,992.58
2019-06-25T04:17:45.060Z,992.57
2019-06-25T04:18:46.974Z,992.57
2019-06-25T04:19:45.456Z,992.55
2019-06-25T04:20:45.666Z,992.60
2019-06-25T04:21:45.889Z,992.57
2019-06-25T04:22:46.013Z,992.54
2019-06-25T04:23:46.152Z,992.53
2019-06-25T04:24:47.962Z,992.57
2019-06-25T04:25:48.468Z,992.50
2019-06-25T04:26:46.675Z,992.51
2019-06-25T04:27:46.920Z,992.47
2019-06-25T04:28:47.136Z,992.51
2019-06-25T04:29:48.962Z,992.52
2019-06-25T04:30:51.470Z,992.55
2019-06-25T04:31:49.466Z,992.55
2019-06-25T04:32:47.799Z,992.51
2019-06-25T04:33:49.967Z,992.55
2019-06-25T04:34:49.968Z,992.54
2019-06-25T04:35:51.988Z,992.55
2019-06-25T04:36:48.580Z,992.53
2019-06-25T04:37:48.828Z,992.53
2019-06-25T04:38:48.920Z,992.56
2019-06-25T04:39:50.153Z,992.58
2019-06-25T04:40:49.367Z,992.58
2019-06-25T04:41:51.468Z,992.53
2019-06-25T04:42:49.813Z,992.56
2019-06-25T04:43:50.009Z,992.58
2019-06-25T04:44:50.226Z,992.54
2019-06-25T04:45:50.483Z,992.53
2019-06-25T04:46:55.478Z,992.60
2019-06-25T04:47:57.488Z,992.61
2019-06-25T04:48:52.486Z,992.60
2019-06-25T04:49:51.067Z,992.57
2019-06-25T04:50:51.290Z,992.63
2019-06-25T04:51:53.493Z,992.61
2019-06-25T04:52:51.737Z,992.62
2019-06-25T04:53:55.470Z,992.63
2019-06-25T04:54:55.963Z,992.61
2019-06-25T04:55:58.001Z,992.59
2019-06-25T04:56:52.325Z,992.58
2019-06-25T04:57:52.545Z,992.58
2019-06-25T04:58:56.471Z,992.60
2019-06-25T04:59:54.468Z,992.64
2019-06-25T05:00:54.992Z,992.67
2019-06-25T05:01:54.966Z,992.68
2019-06-25T05:02:56.974Z,992.71
2019-06-25T05:03:53.581Z,992.67
2019-06-25T05:04:53.810Z,992.74
2019-06-25T05:05:56.010Z,992.73
2019-06-25T05:06:55.993Z,992.78
2019-06-25T05:07:55.371Z,992.82
2019-06-25T05:08:54.454Z,992.79
2019-06-25T05:09:58.468Z,992.82
2019-06-25T05:10:55.832Z,992.78
2019-06-25T05:12:00.928Z,992.80
2019-06-25T05:12:56.972Z,992.78
2019-06-25T05:13:58.011Z,992.79
2019-06-25T05:14:57.731Z,992.78
2019-06-25T05:16:20.498Z,992.84
2019-06-25T05:16:56.915Z,992.84
2019-06-25T05:17:56.076Z,992.90
2019-06-25T05:18:56.171Z,992.93
2019-06-25T05:19:58.920Z,992.96
2019-06-25T05:20:58.473Z,992.97
2019-06-25T05:22:01.521Z,992.94
2019-06-25T05:23:04.469Z,992.91
2019-06-25T05:23:57.060Z,992.88
2019-06-25T05:24:59.684Z,992.90
2019-06-25T05:26:08.563Z,992.87
2019-06-25T05:26:59.521Z,992.86
2019-06-25T05:28:14.930Z,992.89
2019-06-25T05:29:15.426Z,992.90
2019-06-25T05:30:13.990Z,992.88
2019-06-25T05:31:01.421Z,992.92
2019-06-25T05:31:58.546Z,992.92
2019-06-25T05:33:05.195Z,992.94
2019-06-25T05:34:02.471Z,992.94
2019-06-25T05:35:02.973Z,992.99
2019-06-25T05:36:02.976Z,992.97
2019-06-25T05:37:02.917Z,992.97
2019-06-25T05:38:03.531Z,992.97
2019-06-25T05:38:59.692Z,992.97
2019-06-25T05:40:01.556Z,992.96
2019-06-25T05:42:35.183Z,992.91
2019-06-25T05:43:34.087Z,992.90
2019-06-25T05:44:36.282Z,992.95
2019-06-25T05:45:37.165Z,992.92
2019-06-25T05:46:35.683Z,993.00
2019-06-25T05:47:35.151Z,992.98
2019-06-25T05:48:35.377Z,993.00
2019-06-25T05:49:37.735Z,992.99
2019-06-25T05:50:35.856Z,993.03
2019-06-25T05:51:34.074Z,993.03
2019-06-25T05:52:34.287Z,993.04
2019-06-25T05:53:40.143Z,993.04
2019-06-25T05:54:35.648Z,993.06
2019-06-25T05:55:51.738Z,993.05
2019-06-25T06:18:47.002Z,993.17
2019-06-25T06:19:23.440Z,993.18
2019-06-25T06:20:20.031Z,993.17
2019-06-25T06:21:23.519Z,993.18
2019-06-25T06:22:20.950Z,993.18
2019-06-25T06:23:21.984Z,993.18
2019-06-25T06:24:22.887Z,993.21
2019-06-25T06:25:24.543Z,993.23
2019-06-25T06:26:28.540Z,993.22
2019-06-25T06:27:24.013Z,993.17
2019-06-25T06:28:23.059Z,993.18
2019-06-25T06:29:23.574Z,993.23
2019-06-25T06:30:25.488Z,993.20
2019-06-25T06:31:22.086Z,993.23
2019-06-25T06:32:22.296Z,993.25
2019-06-25T06:33:37.138Z,993.29
2019-06-25T06:34:24.552Z,993.29
2019-06-25T06:35:24.009Z,993.32
2019-06-25T06:36:25.016Z,993.32
2019-06-25T06:37:24.382Z,993.34
2019-06-25T06:38:27.455Z,993.31
2019-06-25T06:39:24.495Z,993.28
2019-06-25T06:40:25.503Z,993.24
2019-06-25T06:41:25.460Z,993.24
2019-06-25T06:42:25.000Z,993.22
2019-06-25T06:43:26.502Z,993.21
2019-06-25T06:44:26.520Z,993.24
2019-06-25T06:45:31.497Z,993.24
2019-06-25T06:46:28.994Z,993.20
2019-06-25T06:47:28.990Z,993.22
2019-06-25T06:48:25.514Z,993.23
2019-06-25T06:49:27.492Z,993.21
2019-06-25T06:50:29.545Z,993.26
2019-06-25T06:51:27.996Z,993.23
2019-06-25T06:52:26.214Z,993.25
2019-06-25T06:53:26.575Z,993.27
2019-06-25T06:54:27.964Z,993.26
2019-06-25T06:55:29.471Z,993.26
2019-06-25T06:56:29.994Z,993.31
2019-06-25T06:57:29.060Z,993.30
2019-06-25T06:58:42.987Z,993.29
2019-06-25T06:59:50.104Z,993.28
2019-06-25T07:00:29.499Z,993.27
2019-06-25T07:01:30.047Z,993.25
2019-06-25T07:02:32.007Z,993.23
2019-06-25T07:03:30.221Z,993.23
2019-06-25T07:04:30.950Z,993.24
2019-06-25T07:05:28.558Z,993.25
2019-06-25T07:06:30.499Z,993.28
2019-06-25T07:07:29.083Z,993.29
2019-06-25T07:08:31.971Z,993.30
2019-06-25T07:09:30.951Z,993.30
2019-06-25T07:10:31.043Z,993.27
2019-06-25T07:11:32.451Z,993.26
2019-06-25T07:12:31.561Z,993.28
2019-06-25T07:13:34.036Z,993.30
2019-06-25T07:14:32.044Z,993.31
2019-06-25T07:15:32.660Z,993.35
2019-06-25T07:16:39.400Z,993.31
2019-06-25T07:17:32.975Z,993.34
2019-06-25T07:18:33.442Z,993.34
2019-06-25T07:19:34.042Z,993.36
2019-06-25T07:20:34.170Z,993.29
2019-06-25T07:21:33.004Z,993.26
2019-06-25T07:22:32.450Z,993.27
2019-06-25T07:23:35.501Z,993.32
2019-06-25T07:24:33.513Z,993.37
2019-06-25T07:25:34.094Z,993.37
2019-06-25T07:26:33.995Z,993.39
2019-06-25T07:27:38.066Z,993.40
2019-06-25T07:28:34.846Z,993.44
2019-06-25T07:29:38.976Z,993.44
2019-06-25T07:30:36.975Z,993.47
2019-06-25T07:31:34.330Z,993.47
2019-06-25T07:32:33.451Z,993.49
2019-06-25T07:33:36.457Z,993.63
2019-06-25T07:34:33.824Z,993.67
2019-06-25T07:35:36.009Z,993.80
2019-06-25T07:36:35.996Z,993.86
2019-06-25T07:37:38.048Z,993.92
2019-06-25T07:38:36.500Z,993.88
2019-06-25T07:39:36.582Z,993.81
2019-06-25T07:40:41.993Z,993.66
2019-06-25T07:41:37.115Z,993.62
2019-06-25T07:42:38.860Z,993.57
2019-06-25T07:43:39.729Z,993.55
2019-06-25T07:44:40.382Z,993.49
2019-06-25T07:45:38.853Z,993.47
2019-06-25T07:46:38.471Z,993.49
2019-06-25T07:47:37.458Z,993.47
2019-06-25T07:48:37.680Z,993.47
2019-06-25T07:49:44.310Z,993.43
2019-06-25T07:50:42.451Z,993.42
2019-06-25T07:51:41.001Z,993.42
2019-06-25T07:52:45.950Z,993.41
2019-06-25T07:53:40.342Z,993.41
2019-06-25T07:54:37.842Z,993.42
2019-06-25T07:55:43.451Z,993.44
2019-06-25T07:56:39.749Z,993.43
2019-06-25T07:57:41.963Z,993.35
2019-06-25T07:58:38.705Z,993.41
2019-06-25T07:59:40.500Z,993.40
2019-06-25T08:00:43.259Z,993.44
2019-06-25T08:01:46.979Z,993.41
2019-06-25T08:02:43.375Z,993.42
2019-06-25T08:04:02.465Z,993.47
2019-06-25T08:06:15.829Z,993.45
2019-06-25T08:07:14.819Z,993.41
2019-06-25T08:08:14.811Z,993.42
2019-06-25T08:09:16.391Z,993.37
2019-06-25T08:10:12.382Z,993.39
2019-06-25T08:11:14.978Z,993.39
2019-06-25T08:12:14.898Z,993.36
2019-06-25T08:13:13.759Z,993.35
2019-06-25T08:14:15.505Z,993.31
2019-06-25T08:15:15.383Z,993.35
2019-06-25T08:16:16.267Z,993.40
2019-06-25T08:17:29.831Z,993.34
2019-06-25T08:18:42.890Z,993.39
2019-06-25T08:19:15.767Z,993.38
2019-06-25T08:20:20.262Z,993.41
2019-06-25T08:21:18.860Z,993.43
2019-06-25T08:22:19.832Z,993.43
2019-06-25T08:23:17.828Z,993.44
2019-06-25T08:24:22.770Z,993.45
2019-06-25T08:25:16.430Z,993.48
2019-06-25T08:26:15.619Z,993.51
2019-06-25T08:27:18.704Z,993.52
2019-06-25T08:28:17.818Z,993.66
2019-06-25T08:29:41.521Z,993.73
2019-06-25T08:32:04.204Z,993.62
2019-06-25T08:32:54.631Z,993.55
2019-06-25T08:33:52.341Z,993.47
2019-06-25T08:34:53.634Z,993.44
2019-06-25T08:35:49.308Z,993.36
2019-06-25T08:37:01.149Z,993.37
2019-06-25T08:37:54.071Z,993.35
2019-06-25T08:39:13.578Z,993.36
2019-06-25T08:39:53.533Z,993.27
2019-06-25T08:41:17.071Z,993.33
2019-06-25T08:42:03.032Z,993.29
2019-06-25T08:42:52.258Z,993.28
2019-06-25T08:43:50.761Z,993.28
2019-06-25T08:44:52.565Z,993.32
2019-06-25T08:45:52.486Z,993.32
2019-06-25T08:46:52.499Z,993.35
2019-06-25T08:48:21.039Z,993.45
2019-06-25T08:48:54.584Z,993.50
2019-06-25T08:50:07.621Z,993.56
2019-06-25T08:50:55.566Z,993.59
2019-06-25T08:51:52.343Z,993.67
2019-06-25T08:52:58.468Z,993.72
2019-06-25T08:53:53.972Z,993.79
2019-06-25T08:55:18.534Z,993.74
2019-06-25T08:56:10.017Z,993.79
2019-06-25T08:56:57.073Z,993.78
2019-06-25T08:58:01.599Z,993.81
2019-06-25T08:58:55.584Z,993.82
2019-06-25T08:59:58.315Z,993.88
2019-06-25T09:01:02.930Z,993.89
2019-06-25T09:01:58.075Z,993.91
2019-06-25T09:02:56.185Z,993.92
2019-06-25T09:04:06.778Z,993.90
2019-06-25T09:05:00.628Z,993.91
2019-06-25T09:05:57.067Z,993.89
2019-06-25T09:06:59.117Z,993.84
2019-06-25T09:08:18.092Z,993.85
2019-06-25T09:09:03.567Z,993.86
2019-06-25T09:10:28.696Z,993.80
2019-06-25T09:10:58.549Z,993.80
2019-06-25T09:12:00.075Z,993.86
2019-06-25T09:14:38.054Z,993.77
2019-06-25T09:15:40.679Z,993.71
2019-06-25T09:16:56.769Z,993.80
2019-06-25T09:17:32.521Z,993.83
2019-06-25T09:18:35.218Z,993.82
2019-06-25T09:19:48.982Z,993.79
2019-06-25T09:20:55.654Z,993.79
2019-06-25T09:21:32.586Z,993.83
2019-06-25T09:22:36.598Z,993.82
2019-06-25T09:23:35.659Z,993.80
2019-06-25T09:24:34.521Z,993.84
2019-06-25T09:25:56.287Z,993.79
2019-06-25T09:26:47.561Z,993.76
2019-06-25T09:28:06.672Z,993.78
2019-06-25T09:28:37.772Z,993.83
2019-06-25T09:29:38.500Z,993.84
2019-06-25T09:30:38.475Z,993.85
2019-06-25T09:31:55.787Z,993.86
2019-06-25T09:32:35.948Z,993.86
2019-06-25T09:33:38.966Z,993.89
2019-06-25T09:35:13.357Z,993.85
2019-06-25T09:37:12.481Z,993.82
2019-06-25T09:38:44.588Z,993.82
2019-06-25T09:39:09.829Z,993.82
2019-06-25T09:40:13.966Z,993.81
2019-06-25T09:41:31.190Z,993.82
2019-06-25T09:42:11.697Z,993.80
2019-06-25T09:43:28.187Z,993.78
2019-06-25T09:44:09.177Z,993.75
2019-06-25T09:45:14.260Z,993.76
2019-06-25T09:46:07.522Z,993.80
2019-06-25T09:47:07.967Z,993.82
2019-06-25T09:48:12.821Z,993.81
2019-06-25T09:49:31.716Z,993.80
2019-06-25T09:50:09.282Z,993.77
2019-06-25T09:51:07.653Z,993.77
2019-06-25T09:52:11.876Z,993.75
2019-06-25T09:54:47.780Z,993.80
2019-06-25T09:55:44.903Z,993.81
2019-06-25T09:56:44.000Z,993.81
2019-06-25T09:57:45.086Z,993.80
2019-06-25T09:58:44.696Z,993.81
2019-06-25T09:59:43.598Z,993.83
2019-06-25T10:00:49.317Z,993.88
2019-06-25T10:01:49.908Z,993.87
2019-06-25T10:02:44.983Z,993.76
2019-06-25T10:04:13.837Z,993.71
2019-06-25T10:04:45.929Z,993.78
2019-06-25T10:05:44.206Z,993.84
2019-06-25T10:06:47.402Z,993.86
2019-06-25T10:07:50.884Z,993.82
2019-06-25T10:08:47.386Z,993.84
2019-06-25T10:10:07.210Z,993.86
2019-06-25T10:10:46.129Z,993.91
2019-06-25T10:11:45.168Z,993.89
2019-06-25T10:12:44.087Z,993.87
2019-06-25T10:13:47.133Z,993.90
2019-06-25T10:14:55.826Z,993.96
2019-06-25T10:15:46.650Z,993.90
2019-06-25T10:17:06.589Z,993.94
2019-06-25T10:17:47.142Z,993.96
2019-06-25T10:18:45.195Z,994.02
2019-06-25T10:19:57.628Z,994.00
2019-06-25T10:21:00.929Z,994.01
2019-06-25T10:22:07.677Z,994.07
2019-06-25T10:22:53.202Z,994.00
2019-06-25T10:23:53.077Z,993.92
2019-06-25T10:24:46.441Z,993.94
2019-06-25T10:25:53.710Z,994.00
2019-06-25T10:26:47.864Z,993.98
2019-06-25T10:27:47.087Z,993.88
2019-06-25T10:28:50.128Z,993.89
2019-06-25T10:31:23.353Z,993.63
2019-06-25T10:32:21.346Z,993.53
2019-06-25T10:33:18.620Z,993.52
2019-06-25T10:34:19.457Z,993.49
2019-06-25T10:35:19.124Z,993.47
2019-06-25T10:36:19.309Z,993.47
2019-06-25T10:37:19.709Z,993.45
2019-06-25T10:38:21.456Z,993.40
2019-06-25T10:39:43.595Z,993.40
2019-06-25T10:40:23.869Z,993.44
2019-06-25T10:41:25.685Z,993.40
2019-06-25T10:42:34.895Z,993.36
2019-06-25T10:43:24.728Z,993.37
2019-06-25T10:44:24.570Z,993.39
2019-06-25T10:45:38.020Z,993.39
2019-06-25T10:46:34.085Z,993.34
2019-06-25T10:47:50.472Z,993.35
2019-06-25T10:48:26.529Z,993.32
2019-06-25T10:49:29.523Z,993.29
2019-06-25T10:50:45.103Z,993.29
2019-06-25T10:51:26.548Z,993.28
2019-06-25T10:52:26.034Z,993.33
2019-06-25T10:53:26.854Z,993.30
2019-06-25T10:54:24.712Z,993.30
2019-06-25T10:55:35.273Z,993.29
2019-06-25T10:58:57.919Z,993.26
2019-06-25T10:59:55.847Z,993.25
2019-06-25T11:02:40.211Z,993.24
2019-06-25T11:04:37.156Z,993.25
2019-06-25T11:06:04.937Z,993.27
2019-06-25T11:06:31.935Z,993.26
2019-06-25T11:07:41.966Z,993.25
2019-06-25T11:08:31.945Z,993.21
2019-06-25T11:09:36.800Z,993.22
2019-06-25T11:10:31.295Z,993.16
2019-06-25T11:11:32.514Z,993.16
2019-06-25T11:12:56.448Z,993.19
2019-06-25T11:13:33.038Z,993.15
2019-06-25T11:14:38.934Z,993.08
2019-06-25T11:15:34.894Z,993.05
2019-06-25T11:16:33.472Z,993.07
2019-06-25T11:17:55.986Z,993.02
2019-06-25T11:18:52.527Z,993.03
2019-06-25T11:19:35.950Z,992.94
2019-06-25T11:20:47.487Z,992.92
2019-06-25T11:21:35.072Z,992.88
2019-06-25T11:22:33.987Z,992.85
2019-06-25T11:23:33.938Z,992.83
2019-06-25T11:24:34.491Z,992.83
2019-06-25T11:25:40.491Z,992.72
2019-06-25T11:26:34.477Z,992.73
2019-06-25T11:27:34.814Z,992.67
2019-06-25T11:28:58.095Z,992.70
2019-06-25T11:29:34.495Z,992.73
2019-06-25T11:30:35.544Z,992.75
2019-06-25T11:31:35.035Z,992.76
2019-06-25T11:33:01.487Z,992.71
2019-06-25T11:33:38.019Z,992.71
2019-06-25T11:34:41.273Z,992.71
2019-06-25T11:35:37.521Z,992.67
2019-06-25T11:36:52.431Z,992.67
2019-06-25T11:37:50.551Z,992.67
2019-06-25T11:38:43.050Z,992.69
2019-06-25T11:39:40.929Z,992.71
2019-06-25T11:40:37.732Z,992.77
2019-06-25T11:41:37.641Z,992.71
2019-06-25T11:42:37.543Z,992.68
2019-06-25T11:43:45.008Z,992.66
2019-06-25T11:44:37.980Z,992.64
2019-06-25T11:45:44.998Z,992.65
2019-06-25T11:46:38.595Z,992.60
2019-06-25T11:47:40.481Z,992.62
2019-06-25T11:48:59.951Z,992.77
2019-06-25T11:49:41.004Z,992.75
2019-06-25T11:50:59.717Z,992.72
2019-06-25T11:51:42.976Z,992.73
2019-06-25T11:52:41.435Z,992.70
2019-06-25T11:53:38.052Z,992.69
2019-06-25T11:54:41.984Z,992.66
2019-06-25T11:55:44.456Z,992.66
2019-06-25T11:56:41.325Z,992.67
2019-06-25T11:57:40.928Z,992.68
2019-06-25T11:58:43.085Z,992.64
2019-06-25T11:59:47.029Z,992.62
2019-06-25T12:00:42.434Z,992.61
2019-06-25T12:01:41.974Z,992.56
2019-06-25T12:02:41.515Z,992.56
2019-06-25T12:03:45.926Z,992.56
2019-06-25T12:04:41.989Z,992.56
2019-06-25T12:06:02.343Z,992.55
2019-06-25T12:06:53.233Z,992.54
2019-06-25T12:07:45.987Z,992.49
2019-06-25T12:08:44.486Z,992.54
2019-06-25T12:09:45.620Z,992.56
2019-06-25T12:10:41.304Z,992.56
2019-06-25T12:11:45.027Z,992.56
2019-06-25T12:12:43.503Z,992.55
2019-06-25T12:14:04.608Z,992.57
2019-06-25T12:14:44.511Z,992.55
2019-06-25T12:15:44.087Z,992.58
2019-06-25T12:16:43.434Z,992.59
2019-06-25T12:17:42.574Z,992.56
2019-06-25T12:18:58.513Z,992.53
2019-06-25T12:19:48.893Z,992.49
2019-06-25T12:20:49.173Z,992.55
2019-06-25T12:21:49.982Z,992.50
2019-06-25T12:22:44.429Z,992.52
2019-06-25T12:23:44.994Z,992.50
2019-06-25T12:24:47.939Z,992.48
2019-06-25T12:25:47.071Z,992.40
2019-06-25T12:26:46.238Z,992.41
2019-06-25T12:29:22.375Z,992.44
2019-06-25T12:30:19.644Z,992.42
2019-06-25T12:31:19.158Z,992.36
2019-06-25T12:32:27.904Z,992.38
2019-06-25T12:33:23.701Z,992.41
2019-06-25T12:34:20.174Z,992.41
2019-06-25T12:35:21.428Z,992.44
2019-06-25T12:36:22.356Z,992.40
2019-06-25T12:37:21.119Z,992.37
2019-06-25T12:38:22.364Z,992.36
2019-06-25T12:39:23.175Z,992.35
2019-06-25T12:40:28.015Z,992.32
2019-06-25T12:41:28.511Z,992.36
2019-06-25T12:42:21.124Z,992.38
2019-06-25T12:43:21.572Z,992.37
2019-06-25T12:44:33.021Z,992.38
2019-06-25T12:45:25.602Z,992.37
2019-06-25T12:46:23.044Z,992.36
2019-06-25T12:47:20.372Z,992.37
2019-06-25T12:48:27.250Z,992.41
2019-06-25T12:49:22.568Z,992.42
2019-06-25T12:50:47.577Z,992.38
2019-06-25T12:51:26.251Z,992.38
2019-06-25T12:52:24.078Z,992.37
2019-06-25T12:53:24.730Z,992.39
2019-06-25T12:54:44.560Z,992.40
2019-06-25T12:55:25.612Z,992.36
2019-06-25T12:56:46.605Z,992.34
2019-06-25T12:57:22.228Z,992.36
2019-06-25T12:58:31.044Z,992.35
2019-06-25T12:59:26.084Z,992.38
2019-06-25T13:00:38.715Z,992.38
2019-06-25T13:01:39.983Z,992.38
2019-06-25T13:02:25.017Z,992.39
2019-06-25T13:03:27.041Z,992.37
2019-06-25T13:04:27.059Z,992.35
2019-06-25T13:05:25.577Z,992.31
2019-06-25T13:06:23.677Z,992.31
2019-06-25T13:07:26.570Z,992.33
2019-06-25T13:08:27.564Z,992.29
2019-06-25T13:09:27.055Z,992.32
2019-06-25T13:10:25.553Z,992.26